createdAt,value
2022-10-17T00:01:44.391Z,16.30
2022-10-17T00:04:11.396Z,16.30
2022-10-17T00:06:38.395Z,16.40
2022-10-17T00:09:05.455Z,16.40
2022-10-17T00:11:32.492Z,16.50
2022-10-17T00:13:59.497Z,16.50
2022-10-17T00:16:29.469Z,16.60
2022-10-17T00:18:57.488Z,16.70
2022-10-17T00:21:24.997Z,16.80
2022-10-17T00:23:53.647Z,16.90
2022-10-17T00:26:21.041Z,16.90
2022-10-17T00:28:49.373Z,17.00
2022-10-17T00:31:18.396Z,17.10
2022-10-17T00:33:46.061Z,17.10
2022-10-17T00:36:18.894Z,17.10
2022-10-17T00:38:47.572Z,17.10
2022-10-17T00:41:17.366Z,17.10
2022-10-17T00:43:52.189Z,17.20
2022-10-17T00:46:19.318Z,17.10
2022-10-17T00:48:47.629Z,17.20
2022-10-17T00:51:15.693Z,17.20
2022-10-17T00:53:43.132Z,17.20
2022-10-17T00:56:10.523Z,17.20
2022-10-17T00:58:37.570Z,17.20
2022-10-17T01:01:05.531Z,17.20
2022-10-17T01:03:32.622Z,17.20
2022-10-17T01:05:59.823Z,17.20
2022-10-17T01:08:27.375Z,17.20
2022-10-17T01:11:16.112Z,17.20
2022-10-17T01:13:50.907Z,17.20
2022-10-17T01:16:49.124Z,17.20
2022-10-17T01:19:26.698Z,17.20
2022-10-17T01:22:19.306Z,17.10
2022-10-17T01:24:49.285Z,17.10
2022-10-17T01:27:37.975Z,17.00
2022-10-17T01:30:14.539Z,16.90
2022-10-17T01:32:47.541Z,16.90
2022-10-17T01:35:53.285Z,16.90
2022-10-17T01:38:49.128Z,16.90
2022-10-17T01:41:38.137Z,16.90
2022-10-17T01:44:18.112Z,16.80
2022-10-17T01:46:50.533Z,16.80
2022-10-17T01:49:22.232Z,16.70
2022-10-17T01:52:03.075Z,16.60
2022-10-17T01:54:41.086Z,16.70
2022-10-17T01:57:16.472Z,16.60
2022-10-17T01:59:48.626Z,16.60
2022-10-17T02:02:19.026Z,16.60
2022-10-17T02:04:48.561Z,16.60
2022-10-17T02:07:15.621Z,16.50
2022-10-17T02:09:43.048Z,16.50
2022-10-17T02:12:46.326Z,16.60
2022-10-17T02:15:50.017Z,16.60
2022-10-17T02:18:35.804Z,16.50
2022-10-17T02:21:36.999Z,16.50
2022-10-17T02:24:17.797Z,16.60
2022-10-17T02:27:05.594Z,16.50
2022-10-17T02:29:59.244Z,16.50
2022-10-17T02:32:45.465Z,16.50
2022-10-17T02:35:16.985Z,16.50
2022-10-17T02:37:47.558Z,16.50
2022-10-17T02:40:17.052Z,16.50
2022-10-17T02:42:46.189Z,16.50
2022-10-17T02:45:14.759Z,16.50
2022-10-17T02:47:47.924Z,16.40
2022-10-17T02:50:15.214Z,16.50
2022-10-17T02:52:55.970Z,16.40
2022-10-17T02:55:30.203Z,16.40
2022-10-17T02:58:06.748Z,16.40
2022-10-17T03:00:39.597Z,16.40
2022-10-17T03:03:28.052Z,16.40
2022-10-17T03:05:55.207Z,16.40
2022-10-17T03:08:25.199Z,16.30
2022-10-17T03:10:52.345Z,16.30
2022-10-17T03:13:20.644Z,16.30
2022-10-17T03:15:47.809Z,16.30
2022-10-17T03:18:14.860Z,16.20
2022-10-17T03:20:42.025Z,16.20
2022-10-17T03:23:08.988Z,16.20
2022-10-17T03:25:36.823Z,16.10
2022-10-17T03:28:05.520Z,16.10
2022-10-17T03:30:33.471Z,16.00
2022-10-17T03:33:00.961Z,16.10
2022-10-17T03:35:28.310Z,16.00
2022-10-17T03:37:56.233Z,16.00
2022-10-17T03:40:24.795Z,15.90
2022-10-17T03:42:52.481Z,15.90
2022-10-17T03:45:19.433Z,15.90
2022-10-17T03:47:48.041Z,15.90
2022-10-17T03:50:15.662Z,15.90
2022-10-17T03:52:48.387Z,15.90
2022-10-17T03:55:16.379Z,15.90
2022-10-17T03:57:45.489Z,15.90
2022-10-17T04:00:14.337Z,15.90
2022-10-17T04:02:41.525Z,15.90
2022-10-17T04:05:12.795Z,16.00
2022-10-17T04:07:40.849Z,16.00
2022-10-17T04:10:09.231Z,16.00
2022-10-17T04:12:36.308Z,16.10
2022-10-17T04:15:03.667Z,16.10
2022-10-17T04:17:35.759Z,16.10
2022-10-17T04:20:05.837Z,16.00
2022-10-17T04:22:32.845Z,16.00
2022-10-17T04:24:59.817Z,16.00
2022-10-17T04:27:35.178Z,16.00
2022-10-17T04:30:02.202Z,15.90
2022-10-17T04:32:33.222Z,15.90
2022-10-17T04:35:12.015Z,15.90
2022-10-17T04:37:42.604Z,15.90
2022-10-17T04:40:16.487Z,15.90
2022-10-17T04:42:43.769Z,15.80
2022-10-17T04:45:13.518Z,15.80
2022-10-17T04:47:41.396Z,15.90
2022-10-17T04:50:08.689Z,15.80
2022-10-17T04:52:39.092Z,15.80
2022-10-17T04:55:08.365Z,15.80
2022-10-17T04:57:36.156Z,15.80
2022-10-17T05:00:13.956Z,15.80
2022-10-17T05:02:47.540Z,15.80
2022-10-17T05:05:15.403Z,15.70
2022-10-17T05:07:44.551Z,15.70
2022-10-17T05:10:15.652Z,15.70
2022-10-17T05:12:47.705Z,15.70
2022-10-17T05:15:17.937Z,15.70
2022-10-17T05:17:44.927Z,15.70
2022-10-17T05:20:12.737Z,15.70
2022-10-17T05:22:42.092Z,15.70
2022-10-17T05:25:10.931Z,15.70
2022-10-17T05:27:38.294Z,15.70
2022-10-17T05:30:06.382Z,15.70
2022-10-17T05:32:36.679Z,15.70
2022-10-17T05:35:04.435Z,15.70
2022-10-17T05:37:32.723Z,15.60
2022-10-17T05:40:01.209Z,15.70
2022-10-17T05:42:30.021Z,15.70
2022-10-17T05:44:58.388Z,15.60
2022-10-17T05:47:26.571Z,15.70
2022-10-17T05:49:53.706Z,15.70
2022-10-17T05:52:27.034Z,15.70
2022-10-17T05:55:04.084Z,15.80
2022-10-17T05:57:31.785Z,15.80
2022-10-17T06:00:00.884Z,15.80
2022-10-17T06:02:29.585Z,15.90
2022-10-17T06:04:56.787Z,15.80
2022-10-17T06:07:24.451Z,15.90
2022-10-17T06:09:52.542Z,15.90
2022-10-17T06:12:19.887Z,16.00
2022-10-17T06:14:47.173Z,16.10
2022-10-17T06:17:16.381Z,16.20
2022-10-17T06:19:44.979Z,16.30
2022-10-17T06:22:14.521Z,16.50
2022-10-17T06:24:42.624Z,16.80
2022-10-17T06:27:11.969Z,16.90
2022-10-17T06:29:41.631Z,17.20
2022-10-17T06:32:12.555Z,17.40
2022-10-17T06:34:43.441Z,17.60
2022-10-17T06:37:10.969Z,17.70
2022-10-17T06:39:39.915Z,17.90
2022-10-17T06:42:20.239Z,18.00
2022-10-17T06:45:08.647Z,18.20
2022-10-17T06:47:53.591Z,18.50
2022-10-17T06:50:40.803Z,18.70
2022-10-17T06:53:21.852Z,19.00
2022-10-17T06:56:09.344Z,19.10
2022-10-17T06:59:15.762Z,19.20
2022-10-17T07:01:50.760Z,19.00
2022-10-17T07:04:17.805Z,18.80
2022-10-17T07:06:44.787Z,18.60
2022-10-17T07:09:17.147Z,18.40
2022-10-17T07:11:44.777Z,18.30
2022-10-17T07:14:11.745Z,18.30
2022-10-17T07:16:38.995Z,18.50
2022-10-17T07:19:13.189Z,18.90
2022-10-17T07:21:40.276Z,19.60
2022-10-17T07:24:09.472Z,20.10
2022-10-17T07:26:37.389Z,20.60
2022-10-17T07:29:06.476Z,21.20
2022-10-17T07:31:53.880Z,21.80
2022-10-17T07:34:21.148Z,22.50
2022-10-17T07:36:49.469Z,23.10
2022-10-17T07:39:16.730Z,23.80
2022-10-17T07:41:45.792Z,24.50
2022-10-17T07:44:12.856Z,25.20
2022-10-17T07:46:45.108Z,25.80
2022-10-17T07:49:12.101Z,26.50
2022-10-17T07:51:40.828Z,27.00
2022-10-17T07:54:07.830Z,27.50
2022-10-17T07:56:34.747Z,28.10
2022-10-17T07:59:03.957Z,28.60
2022-10-17T08:01:33.799Z,29.20
2022-10-17T08:04:00.825Z,29.60
2022-10-17T08:06:27.761Z,30.00
2022-10-17T08:08:55.645Z,30.30
2022-10-17T08:11:23.256Z,30.60
2022-10-17T08:13:50.271Z,31.00
2022-10-17T08:16:17.178Z,31.30
2022-10-17T08:18:44.181Z,31.60
2022-10-17T08:21:13.071Z,31.90
2022-10-17T08:23:40.186Z,32.10
2022-10-17T08:26:10.649Z,32.20
2022-10-17T08:28:40.439Z,32.30
2022-10-17T08:31:13.787Z,32.40
2022-10-17T08:33:42.899Z,32.40
2022-10-17T08:36:12.292Z,32.50
2022-10-17T08:38:43.019Z,32.30
2022-10-17T08:41:31.632Z,32.20
2022-10-17T08:44:39.851Z,32.10
2022-10-17T08:47:12.564Z,32.10
2022-10-17T08:49:47.073Z,31.80
2022-10-17T08:52:29.902Z,31.70
2022-10-17T08:54:57.077Z,31.60
2022-10-17T08:57:24.078Z,31.40
2022-10-17T08:59:53.433Z,31.30
2022-10-17T09:02:41.500Z,30.90
2022-10-17T09:05:35.424Z,30.70
2022-10-17T09:08:29.410Z,30.50
2022-10-17T09:11:00.466Z,30.70
2022-10-17T09:13:42.563Z,30.70
2022-10-17T09:16:24.625Z,30.60
2022-10-17T09:19:08.705Z,30.60
2022-10-17T09:21:50.994Z,30.70
2022-10-17T09:24:42.349Z,31.10
2022-10-17T09:27:24.302Z,31.80
2022-10-17T09:29:58.693Z,32.40
2022-10-17T09:32:26.142Z,32.40
2022-10-17T09:34:54.055Z,32.40
2022-10-17T09:37:29.771Z,32.90
2022-10-17T09:39:56.753Z,33.40
2022-10-17T09:42:26.972Z,33.50
2022-10-17T09:45:11.027Z,33.50
2022-10-17T09:48:01.871Z,33.60
2022-10-17T09:50:31.424Z,33.50
2022-10-17T09:53:34.470Z,33.50
2022-10-17T09:56:11.729Z,32.90
2022-10-17T09:58:47.833Z,32.60
2022-10-17T10:01:24.150Z,32.60
2022-10-17T10:04:10.094Z,32.90
2022-10-17T10:06:37.311Z,33.20
2022-10-17T10:09:06.833Z,33.40
2022-10-17T10:12:17.462Z,33.50
2022-10-17T10:14:47.237Z,33.60
2022-10-17T10:17:32.203Z,33.30
2022-10-17T10:20:00.001Z,33.60
2022-10-17T10:22:27.578Z,33.60
2022-10-17T10:25:27.285Z,33.70
2022-10-17T10:27:56.374Z,33.70
2022-10-17T10:30:30.425Z,33.80
2022-10-17T10:33:00.285Z,34.00
2022-10-17T10:35:36.281Z,33.90
2022-10-17T10:38:10.653Z,34.10
2022-10-17T10:40:53.547Z,34.10
2022-10-17T10:43:33.667Z,34.00
2022-10-17T10:46:01.398Z,34.10
2022-10-17T10:48:36.360Z,33.90
2022-10-17T10:51:17.076Z,33.80
2022-10-17T10:53:57.757Z,34.00
2022-10-17T10:56:30.806Z,34.40
2022-10-17T10:59:12.459Z,34.10
2022-10-17T11:01:45.559Z,34.30
2022-10-17T11:04:21.608Z,33.80
2022-10-17T11:06:52.473Z,33.80
2022-10-17T11:09:45.168Z,33.90
2022-10-17T11:12:17.744Z,33.70
2022-10-17T11:14:47.427Z,33.90
2022-10-17T11:17:20.006Z,33.30
2022-10-17T11:20:02.888Z,33.10
2022-10-17T11:23:10.054Z,33.30
2022-10-17T11:25:39.557Z,33.60
2022-10-17T11:28:21.697Z,33.90
2022-10-17T11:30:55.403Z,34.40
2022-10-17T11:33:26.222Z,33.90
2022-10-17T11:36:00.098Z,33.60
2022-10-17T11:38:42.029Z,33.60
2022-10-17T11:41:13.905Z,33.70
2022-10-17T11:44:22.192Z,33.70
2022-10-17T11:46:57.384Z,33.60
2022-10-17T11:49:36.920Z,33.70
2022-10-17T11:52:55.471Z,34.10
2022-10-17T11:55:31.384Z,34.40
2022-10-17T11:58:16.538Z,34.50
2022-10-17T12:00:49.061Z,34.90
2022-10-17T12:03:38.216Z,34.60
2022-10-17T12:06:43.296Z,34.40
2022-10-17T12:09:16.190Z,34.10
2022-10-17T12:12:00.818Z,33.90
2022-10-17T12:14:35.392Z,33.50
2022-10-17T12:17:03.857Z,33.10
2022-10-17T12:19:36.627Z,33.00
2022-10-17T12:22:21.019Z,32.70
2022-10-17T12:25:01.756Z,32.40
2022-10-17T12:27:46.159Z,32.60
2022-10-17T12:30:13.544Z,32.70
2022-10-17T12:33:22.662Z,32.90
2022-10-17T12:35:51.994Z,33.00
2022-10-17T12:38:18.895Z,33.10
2022-10-17T12:40:50.550Z,33.70
2022-10-17T12:43:17.419Z,34.10
2022-10-17T12:45:57.224Z,34.20
2022-10-17T12:48:42.161Z,33.80
2022-10-17T12:54:14.904Z,32.70
2022-10-17T12:56:43.427Z,32.40
2022-10-17T12:59:18.229Z,32.30
2022-10-17T13:01:49.062Z,31.90
2022-10-17T13:04:16.810Z,31.90
2022-10-17T13:06:50.096Z,31.80
2022-10-17T13:09:33.225Z,32.20
2022-10-17T13:12:04.376Z,32.30
2022-10-17T13:14:33.336Z,32.50
2022-10-17T13:17:05.245Z,32.90
2022-10-17T13:19:42.524Z,33.20
2022-10-17T13:22:26.112Z,33.50
2022-10-17T13:25:07.365Z,33.70
2022-10-17T13:27:36.264Z,33.40
2022-10-17T13:30:21.246Z,32.80
2022-10-17T13:32:48.699Z,32.60
2022-10-17T13:38:29.396Z,31.60
2022-10-17T13:41:05.896Z,31.80
2022-10-17T13:43:39.058Z,32.10
2022-10-17T13:46:32.479Z,32.50
2022-10-17T13:48:54.024Z,32.90
2022-10-17T13:51:21.045Z,33.00
2022-10-17T13:53:48.040Z,32.90
2022-10-17T13:56:34.459Z,32.40
2022-10-17T13:59:08.151Z,31.80
2022-10-17T14:01:37.236Z,31.30
2022-10-17T14:04:19.581Z,30.90
2022-10-17T14:06:51.115Z,30.60
2022-10-17T14:09:30.596Z,30.40
2022-10-17T14:12:03.569Z,30.20
2022-10-17T14:14:46.164Z,29.90
2022-10-17T14:17:24.513Z,29.70
2022-10-17T14:20:14.183Z,29.60
2022-10-17T14:22:44.590Z,29.50
2022-10-17T14:25:32.023Z,29.30
2022-10-17T14:28:08.026Z,29.20
2022-10-17T14:30:57.444Z,29.00
2022-10-17T14:33:27.138Z,29.00
2022-10-17T14:35:56.667Z,29.00
2022-10-17T14:38:24.448Z,28.90
2022-10-17T14:41:00.380Z,28.80
2022-10-17T14:43:36.804Z,28.70
2022-10-17T14:46:03.999Z,28.70
2022-10-17T14:48:32.120Z,28.60
2022-10-17T14:51:12.587Z,28.50
2022-10-17T14:53:40.550Z,28.30
2022-10-17T14:56:43.318Z,28.20
2022-10-17T14:59:13.792Z,28.10
2022-10-17T15:01:45.190Z,27.90
2022-10-17T15:04:12.188Z,27.70
2022-10-17T15:06:40.602Z,27.40
2022-10-17T15:09:07.687Z,27.20
2022-10-17T15:11:34.636Z,26.80
2022-10-17T15:14:01.558Z,26.50
2022-10-17T15:16:32.109Z,26.20
2022-10-17T15:18:59.075Z,25.70
2022-10-17T15:21:38.451Z,25.40
2022-10-17T15:24:08.918Z,25.10
2022-10-17T15:26:36.011Z,24.80
2022-10-17T15:29:03.402Z,24.60
2022-10-17T15:31:33.608Z,24.50
2022-10-17T15:34:00.524Z,24.30
2022-10-17T15:36:55.194Z,24.10
2022-10-17T15:39:22.216Z,23.90
2022-10-17T15:41:49.179Z,23.70
2022-10-17T15:44:16.641Z,23.60
2022-10-17T15:46:44.255Z,23.50
2022-10-17T15:49:18.566Z,23.40
2022-10-17T15:51:46.058Z,23.20
2022-10-17T15:56:51.564Z,23.10
2022-10-17T15:59:22.853Z,22.90
2022-10-17T16:01:49.954Z,22.80
2022-10-17T16:04:18.449Z,22.70
2022-10-17T16:06:45.449Z,22.60
2022-10-17T16:09:12.543Z,22.40
2022-10-17T16:11:44.347Z,22.30
2022-10-17T16:14:16.294Z,22.20
2022-10-17T16:16:44.306Z,22.00
2022-10-17T16:19:11.354Z,21.90
2022-10-17T16:21:40.407Z,21.80
2022-10-17T16:24:11.880Z,21.70
2022-10-17T16:26:42.515Z,21.50
2022-10-17T16:29:10.183Z,21.40
2022-10-17T16:31:42.401Z,21.30
2022-10-17T16:34:14.519Z,21.20
2022-10-17T16:36:42.012Z,21.00
2022-10-17T16:39:09.124Z,20.90
2022-10-17T16:41:38.418Z,20.80
2022-10-17T16:44:08.156Z,20.70
2022-10-17T16:46:37.392Z,20.60
2022-10-17T16:49:05.494Z,20.50
2022-10-17T16:51:33.820Z,20.40
2022-10-17T16:54:00.796Z,20.30
2022-10-17T16:56:31.664Z,20.20
2022-10-17T16:59:00.030Z,20.20
2022-10-17T17:01:29.372Z,20.10
2022-10-17T17:03:56.948Z,20.10
2022-10-17T17:06:26.825Z,20.00
2022-10-17T17:08:54.623Z,20.00
2022-10-17T17:11:24.540Z,19.90
2022-10-17T17:13:52.186Z,19.90
2022-10-17T17:16:21.651Z,19.90
2022-10-17T17:18:51.382Z,19.90
2022-10-17T17:21:18.448Z,19.90
2022-10-17T17:23:45.476Z,19.80
2022-10-17T17:26:18.214Z,19.80
2022-10-17T17:28:45.655Z,19.70
2022-10-17T17:31:24.387Z,19.70
2022-10-17T17:33:52.480Z,19.60
2022-10-17T17:36:23.093Z,19.60
2022-10-17T17:38:51.297Z,19.50
2022-10-17T17:41:19.527Z,19.40
2022-10-17T17:43:47.582Z,19.40
2022-10-17T17:46:16.737Z,19.30
2022-10-17T17:48:45.762Z,19.30
2022-10-17T17:51:16.000Z,19.30
2022-10-17T17:53:42.940Z,19.20
2022-10-17T17:56:15.185Z,19.20
2022-10-17T17:58:45.663Z,19.10
2022-10-17T18:01:20.656Z,19.00
2022-10-17T18:03:48.952Z,19.00
2022-10-17T18:06:16.482Z,18.90
2022-10-17T18:08:49.304Z,18.90
2022-10-17T18:11:18.414Z,18.80
2022-10-17T18:13:48.278Z,18.80
2022-10-17T18:16:16.798Z,18.80
2022-10-17T18:18:46.762Z,18.70
2022-10-17T18:21:14.140Z,18.70
2022-10-17T18:23:43.353Z,18.70
2022-10-17T18:26:10.961Z,18.70
2022-10-17T18:28:43.096Z,18.60
2022-10-17T18:31:28.242Z,18.60
2022-10-17T18:34:00.013Z,18.60
2022-10-17T18:36:28.653Z,18.50
2022-10-17T18:38:56.549Z,18.50
2022-10-17T18:41:25.741Z,18.50
2022-10-17T18:43:54.825Z,18.50
2022-10-17T18:46:24.280Z,18.50
2022-10-17T18:48:51.627Z,18.40
2022-10-17T18:51:21.055Z,18.40
2022-10-17T18:53:51.393Z,18.40
2022-10-17T18:56:19.739Z,18.30
2022-10-17T18:58:47.485Z,18.30
2022-10-17T19:01:20.315Z,18.30
2022-10-17T19:03:48.704Z,18.20
2022-10-17T19:06:18.105Z,18.20
2022-10-17T19:08:45.251Z,18.20
2022-10-17T19:11:14.842Z,18.20
2022-10-17T19:13:43.706Z,18.10
2022-10-17T19:16:13.239Z,18.10
2022-10-17T19:18:40.597Z,18.10
2022-10-17T19:21:09.720Z,18.10
2022-10-17T19:23:37.645Z,18.00
2022-10-17T19:26:06.745Z,18.00
2022-10-17T19:28:34.671Z,18.00
2022-10-17T19:31:01.963Z,17.90
2022-10-17T19:36:04.249Z,17.90
2022-10-17T19:38:31.436Z,17.90
2022-10-17T19:43:30.264Z,17.80
2022-10-17T19:46:01.816Z,17.80
2022-10-17T19:48:32.593Z,17.80
2022-10-17T19:51:00.513Z,17.70
2022-10-17T19:53:29.412Z,17.70
2022-10-17T19:55:57.533Z,17.70
2022-10-17T19:58:25.888Z,17.70
2022-10-17T20:00:58.228Z,17.70
2022-10-17T20:03:25.684Z,17.70
2022-10-17T20:05:53.094Z,17.70
2022-10-17T20:08:21.006Z,17.60
2022-10-17T20:10:48.098Z,17.60
2022-10-17T20:13:15.166Z,17.60
2022-10-17T20:15:42.307Z,17.60
2022-10-17T20:18:09.836Z,17.60
2022-10-17T20:20:37.801Z,17.60
2022-10-17T20:23:05.014Z,17.50
2022-10-17T20:25:34.520Z,17.60
2022-10-17T20:28:01.469Z,17.60
2022-10-17T20:30:28.386Z,17.50
2022-10-17T20:32:55.577Z,17.50
2022-10-17T20:35:22.988Z,17.50
2022-10-17T20:37:50.267Z,17.50
2022-10-17T20:40:34.173Z,17.50
2022-10-17T20:43:02.386Z,17.50
2022-10-17T20:45:43.741Z,17.50
2022-10-17T20:48:16.668Z,17.50
2022-10-17T20:50:44.442Z,17.40
2022-10-17T20:53:35.498Z,17.40
2022-10-17T20:56:04.732Z,17.40
2022-10-17T20:58:31.669Z,17.40
2022-10-17T21:00:58.607Z,17.30
2022-10-17T21:03:26.603Z,17.30
2022-10-17T21:05:53.577Z,17.30
2022-10-17T21:08:20.475Z,17.30
2022-10-17T21:10:47.383Z,17.30
2022-10-17T21:13:14.340Z,17.30
2022-10-17T21:15:41.244Z,17.30
2022-10-17T21:18:08.153Z,17.30
2022-10-17T21:20:35.101Z,17.30
2022-10-17T21:23:02.083Z,17.30
2022-10-17T21:25:29.040Z,17.30
2022-10-17T21:27:56.159Z,17.40
2022-10-17T21:30:23.673Z,17.30
2022-10-17T21:32:55.177Z,17.30
2022-10-17T21:35:22.416Z,17.30
2022-10-17T21:37:49.381Z,17.30
2022-10-17T21:40:16.406Z,17.20
2022-10-17T21:42:43.517Z,17.20
2022-10-17T21:45:15.662Z,17.20
2022-10-17T21:48:11.116Z,17.20
2022-10-17T21:50:34.266Z,17.20
2022-10-17T21:53:01.259Z,17.20
2022-10-17T21:55:28.304Z,17.10
2022-10-17T21:57:55.592Z,17.10
2022-10-17T22:00:22.800Z,17.10
2022-10-17T22:02:49.811Z,17.10
2022-10-17T22:05:16.700Z,17.10
2022-10-17T22:07:43.628Z,17.10
2022-10-17T22:10:10.607Z,17.00
2022-10-17T22:12:37.525Z,17.00
2022-10-17T22:15:04.909Z,17.00
2022-10-17T22:17:32.079Z,17.00
2022-10-17T22:19:59.128Z,17.00
2022-10-17T22:22:26.013Z,17.00
2022-10-17T22:24:52.903Z,17.00
2022-10-17T22:27:21.010Z,16.90
2022-10-17T22:29:47.888Z,16.90
2022-10-17T22:32:18.653Z,16.90
2022-10-17T22:34:48.502Z,16.90
2022-10-17T22:37:15.514Z,16.80
2022-10-17T22:39:42.423Z,16.80
2022-10-17T22:42:09.399Z,16.80
2022-10-17T22:44:36.431Z,16.80
2022-10-17T22:47:03.390Z,16.80
2022-10-17T22:49:32.184Z,16.80
2022-10-17T22:51:59.389Z,16.80
2022-10-17T22:54:26.325Z,16.80
2022-10-17T22:56:53.266Z,16.80
2022-10-17T22:59:20.242Z,16.80
2022-10-17T23:01:47.223Z,16.70
2022-10-17T23:04:14.205Z,16.70
2022-10-17T23:06:41.138Z,16.70
2022-10-17T23:09:08.057Z,16.70
2022-10-17T23:11:35.303Z,16.70
2022-10-17T23:14:02.216Z,16.70
2022-10-17T23:16:29.154Z,16.70
2022-10-17T23:18:57.767Z,16.70
2022-10-17T23:21:24.689Z,16.70
2022-10-17T23:23:51.596Z,16.70
2022-10-17T23:26:18.536Z,16.60
2022-10-17T23:28:45.839Z,16.60
2022-10-17T23:31:19.119Z,16.60
2022-10-17T23:33:47.948Z,16.70
2022-10-17T23:36:17.965Z,16.60
2022-10-17T23:38:46.219Z,16.70
2022-10-17T23:41:14.080Z,16.60
2022-10-17T23:43:41.728Z,16.60
2022-10-17T23:46:09.256Z,16.60
2022-10-17T23:48:37.421Z,16.60
2022-10-17T23:51:06.781Z,16.60
2022-10-17T23:53:33.816Z,16.60
2022-10-17T23:56:00.847Z,16.60
2022-10-17T23:58:27.816Z,16.60
